Aviation Digital Data Service (ADDS)

Output produced by METARs form (1924 UTC 18 June 2019)
found at http://www.aviationweather.gov/metar/data/
 
SYCJ 181900Z 04004KT 340V100 9999 FEW019CB 29/25 Q1010 CB NE,E-S & SW-W NOSIG
TAF SYCJ 181600Z 1818/1918 VRB06KT 9999 FEW015CB BKN018 BKN037 
     BECMG 1822/1900 05006KT 9999 SCT016 BKN100 
     BECMG 1906/1908 06004KT 5000 SHRA BKN016 BKN036
       
SYKM 181800Z 08008KT 9999 FEW018CB SCT020 28/22 Q//// NOSIG
TAF SYKM 181100Z 1812/1823 06006KT 9999 BKN015 BKN038 
     TEMPO 1616/1622 5000 SHRA FEW014CB SCT038 BKN080
       
SYLT 181500Z 10016KT 9999 SCT024 31/24 Q//// NOSIG
TAF SYLT 181100Z 1812/1823 06010KT 9999 BKN018 BKN045 
     TEMPO 1616/1620 5000 SHRA FEW015CB SCT045 BKN100